sensor_id;sensor_type;location;lat;lon;timestamp;pressure;altitude;pressure_sealevel;temperature;humidity
11114;BME280;5610;52.154;9.198;2023-12-14T00:02:30;99825.72;;;7.85;100.00
11114;BME280;5610;52.154;9.198;2023-12-14T00:05:15;99822.97;;;7.87;100.00
11114;BME280;5610;52.154;9.198;2023-12-14T00:08:00;99833.47;;;7.88;100.00
11114;BME280;5610;52.154;9.198;2023-12-14T00:10:45;99838.78;;;7.88;100.00
11114;BME280;5610;52.154;9.198;2023-12-14T00:13:32;99852.16;;;7.87;100.00
11114;BME280;5610;52.154;9.198;2023-12-14T00:16:17;99851.13;;;7.89;100.00
11114;BME280;5610;52.154;9.198;2023-12-14T00:19:02;99865.50;;;7.85;100.00
11114;BME280;5610;52.154;9.198;2023-12-14T00:21:48;99879.72;;;7.84;100.00
11114;BME280;5610;52.154;9.198;2023-12-14T00:24:33;99878.19;;;7.80;100.00
11114;BME280;5610;52.154;9.198;2023-12-14T00:27:18;99889.97;;;7.76;100.00
11114;BME280;5610;52.154;9.198;2023-12-14T00:30:06;99897.25;;;7.72;100.00
11114;BME280;5610;52.154;9.198;2023-12-14T00:32:51;99889.88;;;7.63;100.00
11114;BME280;5610;52.154;9.198;2023-12-14T00:35:36;99888.91;;;7.64;100.00
11114;BME280;5610;52.154;9.198;2023-12-14T00:38:21;99897.81;;;7.63;100.00
11114;BME280;5610;52.154;9.198;2023-12-14T00:41:06;99904.13;;;7.61;100.00
11114;BME280;5610;52.154;9.198;2023-12-14T00:43:51;99905.19;;;7.58;100.00
11114;BME280;5610;52.154;9.198;2023-12-14T00:46:38;99908.88;;;7.56;100.00
11114;BME280;5610;52.154;9.198;2023-12-14T00:49:23;99918.91;;;7.51;100.00
11114;BME280;5610;52.154;9.198;2023-12-14T00:52:08;99927.91;;;7.48;100.00
11114;BME280;5610;52.154;9.198;2023-12-14T00:54:53;99924.31;;;7.49;100.00
11114;BME280;5610;52.154;9.198;2023-12-14T00:57:39;99942.00;;;7.49;100.00
11114;BME280;5610;52.154;9.198;2023-12-14T01:00:24;99943.13;;;7.44;100.00
11114;BME280;5610;52.154;9.198;2023-12-14T01:03:11;99953.94;;;7.41;100.00
11114;BME280;5610;52.154;9.198;2023-12-14T01:05:56;99956.09;;;7.35;100.00
11114;BME280;5610;52.154;9.198;2023-12-14T01:08:41;99956.94;;;7.35;100.00
11114;BME280;5610;52.154;9.198;2023-12-14T01:11:26;99956.19;;;7.33;100.00
11114;BME280;5610;52.154;9.198;2023-12-14T01:14:12;99968.56;;;7.33;100.00
11114;BME280;5610;52.154;9.198;2023-12-14T01:16:57;99966.94;;;7.30;100.00
11114;BME280;5610;52.154;9.198;2023-12-14T01:19:44;99967.91;;;7.29;100.00
11114;BME280;5610;52.154;9.198;2023-12-14T01:22:29;99968.84;;;7.28;100.00
11114;BME280;5610;52.154;9.198;2023-12-14T01:25:14;99972.34;;;7.29;100.00
11114;BME280;5610;52.154;9.198;2023-12-14T01:27:59;99981.06;;;7.31;100.00
11114;BME280;5610;52.154;9.198;2023-12-14T01:30:45;99990.63;;;7.33;100.00
11114;BME280;5610;52.154;9.198;2023-12-14T01:33:29;99994.41;;;7.29;100.00
11114;BME280;5610;52.154;9.198;2023-12-14T01:36:20;100003.38;;;7.27;100.00
11114;BME280;5610;52.154;9.198;2023-12-14T01:39:06;100009.69;;;7.24;100.00
11114;BME280;5610;52.154;9.198;2023-12-14T01:41:52;100010.53;;;7.25;100.00
11114;BME280;5610;52.154;9.198;2023-12-14T01:44:37;100013.13;;;7.26;100.00
11114;BME280;5610;52.154;9.198;2023-12-14T01:47:22;100020.03;;;7.29;100.00
11114;BME280;5610;52.154;9.198;2023-12-14T01:50:07;100036.09;;;7.26;100.00
11114;BME280;5610;52.154;9.198;2023-12-14T01:52:53;100033.91;;;7.18;100.00
11114;BME280;5610;52.154;9.198;2023-12-14T01:55:39;100046.56;;;7.13;100.00
11114;BME280;5610;52.154;9.198;2023-12-14T01:58:24;100040.75;;;7.06;100.00
11114;BME280;5610;52.154;9.198;2023-12-14T02:01:19;100043.41;;;7.06;100.00
11114;BME280;5610;52.154;9.198;2023-12-14T02:04:05;100046.81;;;7.08;100.00
11114;BME280;5610;52.154;9.198;2023-12-14T02:06:51;100051.38;;;7.06;100.00
11114;BME280;5610;52.154;9.198;2023-12-14T02:09:38;100050.75;;;7.01;100.00
11114;BME280;5610;52.154;9.198;2023-12-14T02:12:23;100054.09;;;7.05;100.00
11114;BME280;5610;52.154;9.198;2023-12-14T02:15:08;100061.09;;;7.06;100.00
11114;BME280;5610;52.154;9.198;2023-12-14T02:17:54;100058.47;;;7.06;100.00
11114;BME280;5610;52.154;9.198;2023-12-14T02:20:39;100063.81;;;7.04;100.00
11114;BME280;5610;52.154;9.198;2023-12-14T02:23:26;100062.91;;;7.05;100.00
11114;BME280;5610;52.154;9.198;2023-12-14T02:26:11;100084.84;;;7.07;100.00
11114;BME280;5610;52.154;9.198;2023-12-14T02:28:56;100085.72;;;7.08;100.00
11114;BME280;5610;52.154;9.198;2023-12-14T02:31:41;100092.81;;;7.07;100.00
11114;BME280;5610;52.154;9.198;2023-12-14T02:34:27;100092.03;;;7.05;100.00
11114;BME280;5610;52.154;9.198;2023-12-14T02:37:12;100096.81;;;6.99;100.00
11114;BME280;5610;52.154;9.198;2023-12-14T02:39:59;100106.72;;;6.95;100.00
11114;BME280;5610;52.154;9.198;2023-12-14T02:42:44;100098.94;;;6.92;100.00
11114;BME280;5610;52.154;9.198;2023-12-14T02:45:29;100101.75;;;6.89;100.00
11114;BME280;5610;52.154;9.198;2023-12-14T02:48:14;100097.50;;;6.86;100.00
11114;BME280;5610;52.154;9.198;2023-12-14T02:51:00;100103.97;;;6.81;100.00
11114;BME280;5610;52.154;9.198;2023-12-14T02:53:45;100111.16;;;6.79;100.00
11114;BME280;5610;52.154;9.198;2023-12-14T02:56:31;100119.34;;;6.74;100.00
11114;BME280;5610;52.154;9.198;2023-12-14T02:59:16;100127.03;;;6.79;100.00
11114;BME280;5610;52.154;9.198;2023-12-14T03:02:02;100139.34;;;6.80;100.00
11114;BME280;5610;52.154;9.198;2023-12-14T03:04:47;100143.69;;;6.81;100.00
11114;BME280;5610;52.154;9.198;2023-12-14T03:07:32;100136.78;;;6.78;100.00
11114;BME280;5610;52.154;9.198;2023-12-14T03:10:17;100145.47;;;6.80;100.00
11114;BME280;5610;52.154;9.198;2023-12-14T03:13:04;100146.44;;;6.79;100.00
11114;BME280;5610;52.154;9.198;2023-12-14T03:15:49;100154.19;;;6.82;100.00
11114;BME280;5610;52.154;9.198;2023-12-14T03:18:35;100147.94;;;6.83;100.00
11114;BME280;5610;52.154;9.198;2023-12-14T03:21:20;100150.59;;;6.83;100.00
11114;BME280;5610;52.154;9.198;2023-12-14T03:24:05;100154.19;;;6.82;100.00
11114;BME280;5610;52.154;9.198;2023-12-14T03:26:50;100149.16;;;6.78;100.00
11114;BME280;5610;52.154;9.198;2023-12-14T03:29:37;100156.50;;;6.73;100.00
11114;BME280;5610;52.154;9.198;2023-12-14T03:32:22;100162.47;;;6.76;100.00
11114;BME280;5610;52.154;9.198;2023-12-14T03:35:07;100155.31;;;6.78;100.00
11114;BME280;5610;52.154;9.198;2023-12-14T03:37:53;100164.97;;;6.79;100.00
11114;BME280;5610;52.154;9.198;2023-12-14T03:40:38;100160.53;;;6.80;100.00
11114;BME280;5610;52.154;9.198;2023-12-14T03:43:23;100169.41;;;6.79;100.00
11114;BME280;5610;52.154;9.198;2023-12-14T03:46:10;100173.75;;;6.80;100.00
11114;BME280;5610;52.154;9.198;2023-12-14T03:48:55;100178.19;;;6.79;100.00
11114;BME280;5610;52.154;9.198;2023-12-14T03:51:40;100189.56;;;6.81;100.00
11114;BME280;5610;52.154;9.198;2023-12-14T03:54:26;100190.50;;;6.80;100.00
11114;BME280;5610;52.154;9.198;2023-12-14T03:57:11;100199.28;;;6.81;100.00
11114;BME280;5610;52.154;9.198;2023-12-14T03:59:56;100205.19;;;6.70;100.00
11114;BME280;5610;52.154;9.198;2023-12-14T04:02:42;100220.97;;;6.72;100.00
11114;BME280;5610;52.154;9.198;2023-12-14T04:05:28;100225.41;;;6.71;100.00
11114;BME280;5610;52.154;9.198;2023-12-14T04:08:13;100225.50;;;6.70;100.00
11114;BME280;5610;52.154;9.198;2023-12-14T04:10:58;100221.91;;;6.71;100.00
11114;BME280;5610;52.154;9.198;2023-12-14T04:13:43;100230.84;;;6.68;100.00
11114;BME280;5610;52.154;9.198;2023-12-14T04:16:28;100221.97;;;6.69;100.00
11114;BME280;5610;52.154;9.198;2023-12-14T04:19:14;100226.34;;;6.70;100.00
11114;BME280;5610;52.154;9.198;2023-12-14T04:22:00;100236.00;;;6.71;100.00
11114;BME280;5610;52.154;9.198;2023-12-14T04:24:45;100230.53;;;6.74;100.00
11114;BME280;5610;52.154;9.198;2023-12-14T04:27:30;100230.53;;;6.74;100.00
11114;BME280;5610;52.154;9.198;2023-12-14T04:30:16;100246.28;;;6.77;100.00
11114;BME280;5610;52.154;9.198;2023-12-14T04:33:01;100236.47;;;6.79;100.00
11114;BME280;5610;52.154;9.198;2023-12-14T04:35:48;100254.06;;;6.80;100.00
11114;BME280;5610;52.154;9.198;2023-12-14T04:38:33;100253.03;;;6.83;100.00
11114;BME280;5610;52.154;9.198;2023-12-14T04:41:18;100251.50;;;6.79;100.00
11114;BME280;5610;52.154;9.198;2023-12-14T04:44:03;100249.78;;;6.78;100.00
11114;BME280;5610;52.154;9.198;2023-12-14T04:46:48;100257.00;;;6.74;100.00
11114;BME280;5610;52.154;9.198;2023-12-14T04:49:34;100265.03;;;6.73;100.00
11114;BME280;5610;52.154;9.198;2023-12-14T04:52:21;100279.63;;;6.64;100.00
11114;BME280;5610;52.154;9.198;2023-12-14T04:55:07;100284.28;;;6.59;100.00
11114;BME280;5610;52.154;9.198;2023-12-14T04:57:52;100297.06;;;6.51;100.00
11114;BME280;5610;52.154;9.198;2023-12-14T05:00:37;100305.63;;;6.56;100.00
11114;BME280;5610;52.154;9.198;2023-12-14T05:03:22;100308.28;;;6.56;100.00
11114;BME280;5610;52.154;9.198;2023-12-14T05:06:08;100305.69;;;6.54;100.00
11114;BME280;5610;52.154;9.198;2023-12-14T05:08:54;100308.09;;;6.59;100.00
11114;BME280;5610;52.154;9.198;2023-12-14T05:11:40;100316.03;;;6.59;100.00
11114;BME280;5610;52.154;9.198;2023-12-14T05:14:25;100318.47;;;6.64;100.00
11114;BME280;5610;52.154;9.198;2023-12-14T05:17:13;100321.97;;;6.64;100.00
11114;BME280;5610;52.154;9.198;2023-12-14T05:19:58;100333.41;;;6.65;100.00
11114;BME280;5610;52.154;9.198;2023-12-14T05:22:43;100338.00;;;6.61;100.00
11114;BME280;5610;52.154;9.198;2023-12-14T05:25:30;100339.56;;;6.65;100.00
11114;BME280;5610;52.154;9.198;2023-12-14T05:28:15;100342.22;;;6.65;100.00
11114;BME280;5610;52.154;9.198;2023-12-14T05:31:00;100340.50;;;6.64;100.00
11114;BME280;5610;52.154;9.198;2023-12-14T05:33:47;100343.16;;;6.64;100.00
11114;BME280;5610;52.154;9.198;2023-12-14T05:36:32;100347.66;;;6.62;100.00
11114;BME280;5610;52.154;9.198;2023-12-14T05:39:17;100349.53;;;6.60;100.00
11114;BME280;5610;52.154;9.198;2023-12-14T05:42:04;100352.34;;;6.57;100.00
11114;BME280;5610;52.154;9.198;2023-12-14T05:44:49;100354.81;;;6.60;100.00
11114;BME280;5610;52.154;9.198;2023-12-14T05:47:34;100355.75;;;6.59;100.00
11114;BME280;5610;52.154;9.198;2023-12-14T05:50:19;100367.50;;;6.53;100.00
11114;BME280;5610;52.154;9.198;2023-12-14T05:53:06;100364.94;;;6.52;100.00
11114;BME280;5610;52.154;9.198;2023-12-14T05:55:51;100376.75;;;6.45;100.00
11114;BME280;5610;52.154;9.198;2023-12-14T05:58:39;100387.25;;;6.46;100.00
11114;BME280;5610;52.154;9.198;2023-12-14T06:01:25;100392.47;;;6.48;100.00
11114;BME280;5610;52.154;9.198;2023-12-14T06:04:10;100391.63;;;6.47;100.00
11114;BME280;5610;52.154;9.198;2023-12-14T06:06:55;100397.72;;;6.49;100.00
11114;BME280;5610;52.154;9.198;2023-12-14T06:09:40;100403.06;;;6.48;100.00
11114;BME280;5610;52.154;9.198;2023-12-14T06:12:25;100407.44;;;6.49;100.00
11114;BME280;5610;52.154;9.198;2023-12-14T06:15:12;100396.06;;;6.47;100.00
11114;BME280;5610;52.154;9.198;2023-12-14T06:17:57;100411.94;;;6.47;100.00
11114;BME280;5610;52.154;9.198;2023-12-14T06:20:43;100416.53;;;6.43;100.00
11114;BME280;5610;52.154;9.198;2023-12-14T06:23:28;100419.09;;;6.45;100.00
11114;BME280;5610;52.154;9.198;2023-12-14T06:26:13;100420.16;;;6.41;100.00
11114;BME280;5610;52.154;9.198;2023-12-14T06:28:58;100422.31;;;6.32;100.00
11114;BME280;5610;52.154;9.198;2023-12-14T06:31:45;100438.19;;;6.32;100.00
11114;BME280;5610;52.154;9.198;2023-12-14T06:34:31;100448.88;;;6.31;100.00
11114;BME280;5610;52.154;9.198;2023-12-14T06:37:16;100438.13;;;6.34;100.00
11114;BME280;5610;52.154;9.198;2023-12-14T06:40:01;100449.72;;;6.31;100.00
11114;BME280;5610;52.154;9.198;2023-12-14T06:42:47;100449.63;;;6.33;100.00
11114;BME280;5610;52.154;9.198;2023-12-14T06:45:36;100456.72;;;6.32;100.00
11114;BME280;5610;52.154;9.198;2023-12-14T06:48:22;100455.09;;;6.30;100.00
11114;BME280;5610;52.154;9.198;2023-12-14T06:51:08;100460.22;;;6.33;100.00
11114;BME280;5610;52.154;9.198;2023-12-14T06:53:53;100458.38;;;6.35;100.00
11114;BME280;5610;52.154;9.198;2023-12-14T06:56:38;100465.47;;;6.35;100.00
11114;BME280;5610;52.154;9.198;2023-12-14T06:59:23;100464.53;;;6.36;100.00
11114;BME280;5610;52.154;9.198;2023-12-14T07:02:09;100470.69;;;6.36;100.00
11114;BME280;5610;52.154;9.198;2023-12-14T07:04:55;100474.38;;;6.32;100.00
11114;BME280;5610;52.154;9.198;2023-12-14T07:07:41;100487.31;;;6.19;100.00
11114;BME280;5610;52.154;9.198;2023-12-14T07:10:26;100485.59;;;6.18;100.00
11114;BME280;5610;52.154;9.198;2023-12-14T07:13:11;100493.41;;;6.21;100.00
11114;BME280;5610;52.154;9.198;2023-12-14T07:15:56;100503.00;;;6.24;100.00
11114;BME280;5610;52.154;9.198;2023-12-14T07:18:42;100513.31;;;6.30;100.00
11114;BME280;5610;52.154;9.198;2023-12-14T07:21:28;100519.38;;;6.32;100.00
11114;BME280;5610;52.154;9.198;2023-12-14T07:24:14;100521.91;;;6.35;100.00
11114;BME280;5610;52.154;9.198;2023-12-14T07:26:59;100522.75;;;6.36;100.00
11114;BME280;5610;52.154;9.198;2023-12-14T07:29:44;100527.31;;;6.32;100.00
11114;BME280;5610;52.154;9.198;2023-12-14T07:32:29;100528.31;;;6.29;100.00
11114;BME280;5610;52.154;9.198;2023-12-14T07:35:14;100550.78;;;6.21;100.00
11114;BME280;5610;52.154;9.198;2023-12-14T07:38:01;100554.53;;;6.15;100.00
11114;BME280;5610;52.154;9.198;2023-12-14T07:40:46;100565.06;;;6.17;100.00
11114;BME280;5610;52.154;9.198;2023-12-14T07:43:31;100571.97;;;6.19;100.00
11114;BME280;5610;52.154;9.198;2023-12-14T07:46:16;100571.41;;;6.13;100.00
11114;BME280;5610;52.154;9.198;2023-12-14T07:49:01;100590.91;;;6.10;100.00
11114;BME280;5610;52.154;9.198;2023-12-14T07:51:46;100593.22;;;6.18;100.00
11114;BME280;5610;52.154;9.198;2023-12-14T07:54:32;100595.69;;;6.22;100.00
11114;BME280;5610;52.154;9.198;2023-12-14T07:57:18;100602.88;;;6.19;100.00
11114;BME280;5610;52.154;9.198;2023-12-14T08:00:04;100604.03;;;6.13;100.00
11114;BME280;5610;52.154;9.198;2023-12-14T08:02:50;100602.44;;;6.09;100.00
11114;BME280;5610;52.154;9.198;2023-12-14T08:05:35;100614.59;;;6.13;100.00
11114;BME280;5610;52.154;9.198;2023-12-14T08:08:20;100614.53;;;6.15;100.00
11114;BME280;5610;52.154;9.198;2023-12-14T08:11:07;100629.56;;;6.14;100.00
11114;BME280;5610;52.154;9.198;2023-12-14T08:13:52;100632.72;;;6.22;100.00
11114;BME280;5610;52.154;9.198;2023-12-14T08:16:37;100648.53;;;6.24;100.00
11114;BME280;5610;52.154;9.198;2023-12-14T08:19:23;100645.94;;;6.22;100.00
11114;BME280;5610;52.154;9.198;2023-12-14T08:22:08;100644.16;;;6.23;100.00
11114;BME280;5610;52.154;9.198;2023-12-14T08:24:55;100646.63;;;6.27;100.00
11114;BME280;5610;52.154;9.198;2023-12-14T08:27:41;100648.19;;;6.31;100.00
11114;BME280;5610;52.154;9.198;2023-12-14T08:30:27;100655.00;;;6.37;100.00
11114;BME280;5610;52.154;9.198;2023-12-14T08:33:13;100670.88;;;6.37;100.00
11114;BME280;5610;52.154;9.198;2023-12-14T08:35:59;100674.66;;;6.31;100.00
11114;BME280;5610;52.154;9.198;2023-12-14T08:38:44;100679.41;;;6.23;100.00
11114;BME280;5610;52.154;9.198;2023-12-14T08:41:29;100691.59;;;6.27;100.00
11114;BME280;5610;52.154;9.198;2023-12-14T08:44:15;100687.16;;;6.28;100.00
11114;BME280;5610;52.154;9.198;2023-12-14T08:47:01;100694.28;;;6.26;100.00
11114;BME280;5610;52.154;9.198;2023-12-14T08:49:47;100696.94;;;6.26;100.00
11114;BME280;5610;52.154;9.198;2023-12-14T08:52:33;100697.25;;;6.18;100.00
11114;BME280;5610;52.154;9.198;2023-12-14T08:55:18;100704.41;;;6.16;100.00
11114;BME280;5610;52.154;9.198;2023-12-14T08:58:04;100707.06;;;6.16;100.00
11114;BME280;5610;52.154;9.198;2023-12-14T09:00:50;100712.34;;;6.16;100.00
11114;BME280;5610;52.154;9.198;2023-12-14T09:03:36;100720.03;;;6.22;100.00
11114;BME280;5610;52.154;9.198;2023-12-14T09:06:22;100723.66;;;6.20;100.00
11114;BME280;5610;52.154;9.198;2023-12-14T09:09:07;100725.56;;;6.16;100.00
11114;BME280;5610;52.154;9.198;2023-12-14T09:11:52;100738.03;;;6.14;100.00
11114;BME280;5610;52.154;9.198;2023-12-14T09:14:37;100743.09;;;6.19;100.00
11114;BME280;5610;52.154;9.198;2023-12-14T09:17:24;100747.09;;;6.29;100.00
11114;BME280;5610;52.154;9.198;2023-12-14T09:20:10;100753.94;;;6.35;100.00
11114;BME280;5610;52.154;9.198;2023-12-14T09:22:56;100753.84;;;6.36;100.00
11114;BME280;5610;52.154;9.198;2023-12-14T09:25:42;100755.50;;;6.39;100.00
11114;BME280;5610;52.154;9.198;2023-12-14T09:28:27;100755.69;;;6.34;100.00
11114;BME280;5610;52.154;9.198;2023-12-14T09:31:12;100759.84;;;6.40;100.00
11114;BME280;5610;52.154;9.198;2023-12-14T09:34:01;100762.56;;;6.38;100.00
11114;BME280;5610;52.154;9.198;2023-12-14T09:36:47;100766.00;;;6.40;100.00
11114;BME280;5610;52.154;9.198;2023-12-14T09:39:32;100772.16;;;6.41;100.00
11114;BME280;5610;52.154;9.198;2023-12-14T09:42:19;100776.66;;;6.39;100.00
11114;BME280;5610;52.154;9.198;2023-12-14T09:45:07;100771.25;;;6.42;100.00
11114;BME280;5610;52.154;9.198;2023-12-14T09:47:53;100776.28;;;6.48;100.00
11114;BME280;5610;52.154;9.198;2023-12-14T09:50:40;100785.06;;;6.48;100.00
11114;BME280;5610;52.154;9.198;2023-12-14T09:53:25;100783.31;;;6.49;100.00
11114;BME280;5610;52.154;9.198;2023-12-14T09:56:10;100789.47;;;6.49;100.00
11114;BME280;5610;52.154;9.198;2023-12-14T09:58:56;100785.66;;;6.55;100.00
11114;BME280;5610;52.154;9.198;2023-12-14T10:01:42;100792.75;;;6.54;100.00
11114;BME280;5610;52.154;9.198;2023-12-14T10:04:27;100797.19;;;6.54;100.00
11114;BME280;5610;52.154;9.198;2023-12-14T10:07:14;100801.56;;;6.55;100.00
11114;BME280;5610;52.154;9.198;2023-12-14T10:10:09;100810.50;;;6.52;100.00
11114;BME280;5610;52.154;9.198;2023-12-14T10:12:55;100822.13;;;6.48;100.00
11114;BME280;5610;52.154;9.198;2023-12-14T10:15:41;100819.00;;;6.39;100.00
11114;BME280;5610;52.154;9.198;2023-12-14T10:18:26;100831.41;;;6.38;100.00
11114;BME280;5610;52.154;9.198;2023-12-14T10:21:12;100829.69;;;6.37;100.00
11114;BME280;5610;52.154;9.198;2023-12-14T10:23:59;100830.91;;;6.28;100.00
11114;BME280;5610;52.154;9.198;2023-12-14T10:26:45;100831.63;;;6.32;100.00
11114;BME280;5610;52.154;9.198;2023-12-14T10:29:32;100843.91;;;6.35;100.00
11114;BME280;5610;52.154;9.198;2023-12-14T10:32:18;100835.03;;;6.36;100.00
11114;BME280;5610;52.154;9.198;2023-12-14T10:35:05;100844.81;;;6.33;100.00
11114;BME280;5610;52.154;9.198;2023-12-14T10:37:51;100850.00;;;6.37;100.00
11114;BME280;5610;52.154;9.198;2023-12-14T10:40:38;100856.06;;;6.39;100.00
11114;BME280;5610;52.154;9.198;2023-12-14T10:43:27;100859.78;;;6.35;100.00
11114;BME280;5610;52.154;9.198;2023-12-14T10:46:14;100861.81;;;6.28;100.00
11114;BME280;5610;52.154;9.198;2023-12-14T10:49:00;100867.72;;;6.35;100.00
11114;BME280;5610;52.154;9.198;2023-12-14T10:51:46;100865.66;;;6.41;100.00
11114;BME280;5610;52.154;9.198;2023-12-14T10:54:33;100866.94;;;6.53;100.00
11114;BME280;5610;52.154;9.198;2023-12-14T10:57:21;100864.13;;;6.57;100.00
11114;BME280;5610;52.154;9.198;2023-12-14T11:00:08;100867.50;;;6.61;100.00
11114;BME280;5610;52.154;9.198;2023-12-14T11:02:54;100872.53;;;6.67;100.00
11114;BME280;5610;52.154;9.198;2023-12-14T11:05:41;100865.66;;;6.63;100.00
11114;BME280;5610;52.154;9.198;2023-12-14T11:08:26;100880.03;;;6.78;100.00
11114;BME280;5610;52.154;9.198;2023-12-14T11:11:11;100872.03;;;6.79;100.00
11114;BME280;5610;52.154;9.198;2023-12-14T11:14:02;100881.78;;;6.79;100.00
11114;BME280;5610;52.154;9.198;2023-12-14T11:16:48;100881.28;;;6.89;100.00
11114;BME280;5610;52.154;9.198;2023-12-14T11:19:33;100889.25;;;6.89;100.00
11114;BME280;5610;52.154;9.198;2023-12-14T11:22:27;100897.09;;;6.93;100.00
11114;BME280;5610;52.154;9.198;2023-12-14T11:25:13;100893.44;;;6.95;100.00
11114;BME280;5610;52.154;9.198;2023-12-14T11:28:03;100895.09;;;6.98;100.00
11114;BME280;5610;52.154;9.198;2023-12-14T11:30:50;100903.84;;;7.00;100.00
11114;BME280;5610;52.154;9.198;2023-12-14T11:33:35;100911.78;;;7.00;100.00
11114;BME280;5610;52.154;9.198;2023-12-14T11:36:21;100906.56;;;6.98;100.00
11114;BME280;5610;52.154;9.198;2023-12-14T11:39:07;100916.81;;;6.85;100.00
11114;BME280;5610;52.154;9.198;2023-12-14T11:42:00;100910.81;;;6.80;100.00
11114;BME280;5610;52.154;9.198;2023-12-14T11:44:45;100914.16;;;6.85;100.00
11114;BME280;5610;52.154;9.198;2023-12-14T11:47:32;100912.75;;;6.97;100.00
11114;BME280;5610;52.154;9.198;2023-12-14T11:50:17;100910.94;;;6.99;100.00
11114;BME280;5610;52.154;9.198;2023-12-14T11:53:03;100918.81;;;7.01;100.00
11114;BME280;5610;52.154;9.198;2023-12-14T11:55:48;100918.34;;;7.11;100.00
11114;BME280;5610;52.154;9.198;2023-12-14T11:58:34;100922.00;;;7.09;100.00
11114;BME280;5610;52.154;9.198;2023-12-14T12:01:20;100928.75;;;7.16;100.00
11114;BME280;5610;52.154;9.198;2023-12-14T12:04:09;100923.34;;;7.19;100.00
11114;BME280;5610;52.154;9.198;2023-12-14T12:06:59;100930.94;;;7.27;100.00
11114;BME280;5610;52.154;9.198;2023-12-14T12:09:45;100935.41;;;7.26;100.00
11114;BME280;5610;52.154;9.198;2023-12-14T12:12:32;100939.09;;;7.22;100.00
11114;BME280;5610;52.154;9.198;2023-12-14T12:15:18;100947.72;;;7.27;100.00
11114;BME280;5610;52.154;9.198;2023-12-14T12:18:05;100944.72;;;7.35;100.00
11114;BME280;5610;52.154;9.198;2023-12-14T12:20:52;100942.25;;;7.30;100.00
11114;BME280;5610;52.154;9.198;2023-12-14T12:23:38;100946.63;;;7.31;100.00
11114;BME280;5610;52.154;9.198;2023-12-14T12:26:24;100950.69;;;7.40;100.00
11114;BME280;5610;52.154;9.198;2023-12-14T12:29:10;100946.97;;;7.44;100.00
11114;BME280;5610;52.154;9.198;2023-12-14T12:31:55;100947.81;;;7.44;100.00
11114;BME280;5610;52.154;9.198;2023-12-14T12:34:40;100943.88;;;7.55;100.00
11114;BME280;5610;52.154;9.198;2023-12-14T12:37:27;100948.88;;;7.61;100.00
11114;BME280;5610;52.154;9.198;2023-12-14T12:40:12;100937.69;;;7.54;100.00
11114;BME280;5610;52.154;9.198;2023-12-14T12:42:59;100936.53;;;7.60;100.00
11114;BME280;5610;52.154;9.198;2023-12-14T12:45:44;100945.31;;;7.62;100.00
11114;BME280;5610;52.154;9.198;2023-12-14T12:48:29;100941.13;;;7.56;100.00
11114;BME280;5610;52.154;9.198;2023-12-14T12:51:15;100946.97;;;7.64;100.00
11114;BME280;5610;52.154;9.198;2023-12-14T12:54:02;100962.00;;;7.64;100.00
11114;BME280;5610;52.154;9.198;2023-12-14T12:56:47;100960.41;;;7.60;100.00
11114;BME280;5610;52.154;9.198;2023-12-14T12:59:32;100968.38;;;7.60;100.00
11114;BME280;5610;52.154;9.198;2023-12-14T13:02:18;100962.94;;;7.63;100.00
11114;BME280;5610;52.154;9.198;2023-12-14T13:05:05;100965.59;;;7.63;100.00
11114;BME280;5610;52.154;9.198;2023-12-14T13:07:51;100976.53;;;7.55;100.00
11114;BME280;5610;52.154;9.198;2023-12-14T13:10:40;100988.78;;;7.58;100.00
11114;BME280;5610;52.154;9.198;2023-12-14T13:13:26;100985.69;;;7.48;100.00
11114;BME280;5610;52.154;9.198;2023-12-14T13:16:11;100990.00;;;7.51;100.00
11114;BME280;5610;52.154;9.198;2023-12-14T13:18:58;100987.59;;;7.44;100.00
11114;BME280;5610;52.154;9.198;2023-12-14T13:21:43;100984.69;;;7.51;100.00
11114;BME280;5610;52.154;9.198;2023-12-14T13:24:28;100981.03;;;7.53;100.00
11114;BME280;5610;52.154;9.198;2023-12-14T13:27:15;100992.78;;;7.48;100.00
11114;BME280;5610;52.154;9.198;2023-12-14T13:30:00;100998.41;;;7.40;100.00
11114;BME280;5610;52.154;9.198;2023-12-14T13:32:46;101008.69;;;7.48;100.00
11114;BME280;5610;52.154;9.198;2023-12-14T13:35:32;101005.19;;;7.47;100.00
11114;BME280;5610;52.154;9.198;2023-12-14T13:38:17;101006.31;;;7.41;100.00
11114;BME280;5610;52.154;9.198;2023-12-14T13:41:02;101023.84;;;7.44;100.00
11114;BME280;5610;52.154;9.198;2023-12-14T13:43:48;101020.19;;;7.47;100.00
11114;BME280;5610;52.154;9.198;2023-12-14T13:46:35;101018.63;;;7.63;100.00
11114;BME280;5610;52.154;9.198;2023-12-14T13:49:20;101021.88;;;7.69;100.00
11114;BME280;5610;52.154;9.198;2023-12-14T13:52:06;101024.88;;;7.82;100.00
11114;BME280;5610;52.154;9.198;2023-12-14T13:54:51;101033.53;;;8.06;100.00
11114;BME280;5610;52.154;9.198;2023-12-14T13:57:36;101035.16;;;8.09;100.00
11114;BME280;5610;52.154;9.198;2023-12-14T14:00:23;101035.47;;;8.21;100.00
11114;BME280;5610;52.154;9.198;2023-12-14T14:03:09;101043.38;;;8.23;100.00
11114;BME280;5610;52.154;9.198;2023-12-14T14:05:54;101053.34;;;8.18;100.00
11114;BME280;5610;52.154;9.198;2023-12-14T14:08:39;101061.44;;;8.35;100.00
11114;BME280;5610;52.154;9.198;2023-12-14T14:11:25;101077.31;;;8.56;100.00
11114;BME280;5610;52.154;9.198;2023-12-14T14:14:10;101077.81;;;8.64;100.00
11114;BME280;5610;52.154;9.198;2023-12-14T14:16:57;101080.63;;;8.61;100.00
11114;BME280;5610;52.154;9.198;2023-12-14T14:19:42;101081.53;;;8.41;100.00
11114;BME280;5610;52.154;9.198;2023-12-14T14:22:27;101090.38;;;8.21;100.00
11114;BME280;5610;52.154;9.198;2023-12-14T14:25:12;101102.13;;;7.95;100.00
11114;BME280;5610;52.154;9.198;2023-12-14T14:27:58;101104.69;;;7.56;100.00
11114;BME280;5610;52.154;9.198;2023-12-14T14:30:43;101117.84;;;7.37;100.00
11114;BME280;5610;52.154;9.198;2023-12-14T14:33:30;101127.28;;;7.22;100.00
11114;BME280;5610;52.154;9.198;2023-12-14T14:36:15;101120.56;;;7.13;100.00
11114;BME280;5610;52.154;9.198;2023-12-14T14:39:00;101131.00;;;6.95;100.00
11114;BME280;5610;52.154;9.198;2023-12-14T14:41:48;101125.00;;;6.89;100.00